Jamaica, NY (11436)

6:32 PM EST on February 25, 2018 (GMT -0500)
Floral Park, The Original 11001 Wx Site | | Change Station

Elev 103 ft 40.73 °N, 73.71 °W | Updated 1 day ago

Mostly Cloudy
Mostly Cloudy
46.5 °F
Feels Like 46.5 °F
N
0.0
Wind Variable Wind from NNE
Gusts 0.0 mph

Today
High -- | Low -- °F
--% Chance of Precip.
Yesterday
High -- | Low -- °F
Precip. -- in
Pressure 29.98 in
Visibility 10.0 miles
Clouds Mostly Cloudy 700 ft
Mostly Cloudy 19000 ft
Dew Point 45.4 °F
Humidity 96%
Rainfall in
Snow Depth Not available.
6:35 AM 5:41 PM
Waxing Gibbous, 79% visible
METAR KJFK 252251Z 02003KT 10SM BKN007 BKN190 06/05 A2998 RMK AO2 SLP152 BKN007 V SCT T00610050
Pressure 29.98 in
Visibility 10.0 miles
Clouds Mostly Cloudy 700 ft
Mostly Cloudy 19000 ft
Dew Point 45.4 °F
Humidity 96%
Rainfall in
Snow Depth Not available.
6:35 AM 5:41 PM
Waxing Gibbous, 79% visible
METAR KJFK 252251Z 02003KT 10SM BKN007 BKN190 06/05 A2998 RMK AO2 SLP152 BKN007 V SCT T00610050

Get Severe Weather Alerts

Thanks for signing up!

Be on the lookout for a verification email in your inbox.

You'll start receiving the daily forecast at 6 AM.

×

10-Day Weather Forecast

Almanac

Astronomy

Feb. 25, 2018 Rise Set
Actual Time
Civil Twilight
Nautical Twilight
Astronomical Twilight
Moon
Length of Visible Light
Length of Day
Tomorrow will be .
, % of the Moon is Illuminated

Today's Extremes

State Highs State Lows

Community

WunderPhotos

Category 6

Welcome to Category 6. This is the collective home for Weather Underground's featured writeups by Dr. Jeff Masters (right), Bob Henson (left), Chris Burt, and other regular contributors.

Nearby

Air Quality

  Air Quality AQ Index Pollutant
Not available.

Snow Depth

Station Depth Elevation

Earthquake Activity

City Distance Mag. Time & Date
Minimum magnitude displayed is 2.5.

Coastal Water Temperatures

Place Temperature

Stations

Nearby Weather Stations

Station Location Temp. Windchill Dew Point Humidity Wind Precip. Elev Updated Type
                   

Watches & Warnings

There are currently no watches in effect.